25 de setembro de 2022

Hora Código Clima Temp. Visibilidade Tecto Vento METAR/SPECI
8:44 da manhã
V
54 °F 30 mi 14.000 ft 230° 230° 2 kt METAR CYUL 251244Z 23002KT 30SM FEW090 OVC140 12/11 A2970 RMK AC1AC7 SLP060
8:26 da manhã
V
54 °F 30 mi 13.000 ft 250° 250° 4 kt METAR CYUL 251226Z 25004KT 30SM -SHRA FEW080 OVC130 12/10 A2970 RMK AC2AC6 CVCTV CLD EMBD SLP060
8:00 da manhã
V
54 °F 30 mi 12.000 ft 260° 260° 4 kt METAR CYUL 251200Z 26004KT 30SM FEW080 OVC120 12/10 A2970 RMK AC1AC7 CVCTV CLD EMBD SLP061
7:48 da manhã
V
54 °F 30 mi 12.000 ft 250° 250° 4 kt METAR CYUL 251148Z 25004KT 30SM -SHRA FEW065 OVC120 12/10 A2970 RMK SC2AC6 CVCTV CLD EMBD SLP062
7:00 da manhã
V
54 °F 30 mi 14.000 ft 220° 220° 6 kt METAR CYUL 251100Z 22006KT 30SM FEW060 FEW110 OVC140 12/10 A2972 RMK CF1AC2AC6 CF TR SLP065
6:00 da manhã
V
54 °F 15 mi 14.000 ft 240° 240° 5 kt METAR CYUL 251000Z 24005KT 15SM FEW060 BKN140 BKN160 12/10 A2972 RMK SC1AC5AC2 SC TR SLP066
5:00 da manhã
V
52 °F 15 mi 20.000 ft 220° 220° 4 kt METAR CYUL 250900Z 22004KT 15SM FEW020 SCT170 BKN200 11/09 A2973 RMK CF1AC3CI3 CF TR SLP070
4:00 da manhã
V
52 °F 15 mi 21.000 ft 230° 230° 7 kt METAR CYUL 250800Z 23007KT 15SM FEW020 BKN210 11/09 A2975 RMK CF1CS7 CF TR SLP075
3:00 da manhã
V
52 °F 15 mi 21.000 ft 240° 240° 7 kt METAR CYUL 250700Z 24007KT 15SM BKN210 11/09 A2976 RMK CS7 SLP080
2:00 da manhã
V
52 °F 15 mi 22.000 ft 240° 240° 8 kt METAR CYUL 250600Z 24008KT 15SM BKN220 11/09 A2978 RMK CS7 SLP085
1:00 da manhã
V
52 °F 15 mi 22.000 ft 250° 250° 6 kt METAR CYUL 250500Z 25006KT 15SM BKN220 11/09 A2978 RMK CS7 SLP088
12:00 da manhã
V
52 °F 15 mi - 250° 250° 8 kt METAR CYUL 250400Z 25008KT 15SM SKC 11/09 A2979 RMK SLP091

24 de setembro de 2022

Hora Código Clima Temp. Visibilidade Tecto Vento METAR/SPECI
11:00 da tarde
V
54 °F 15 mi - 240° 240° 7 kt METAR CYUL 250300Z 24007KT 15SM SKC 12/07 A2980 RMK SLP093
10:00 da tarde
V
57 °F 15 mi - 280° 280° 8 kt METAR CYUL 250200Z 28008KT 15SM SKC 14/07 A2979 RMK SLP091 DENSITY ALT 200FT
9:00 da tarde
V
57 °F 15 mi - 260° 260° 9 kt METAR CYUL 250100Z 26009KT 15SM FEW250 14/07 A2980 RMK CI1 CI TR SLP094 DENSITY ALT 200FT
8:00 da tarde
V
57 °F 15 mi - 240° 240° 8 kt METAR CYUL 250000Z 24008KT 15SM FEW250 14/07 A2980 RMK CI1 SLP094 DENSITY ALT 200FT
7:00 da tarde
V
59 °F 15 mi - 240° 240° 7 kt METAR CYUL 242300Z 24007KT 15SM FEW250 15/07 A2980 RMK CI1 CI TR SLP094 DENSITY ALT 400FT
6:00 da tarde
V
64 °F 25 mi - 260° 260° 12 kt METAR CYUL 242200Z 26012KT 25SM FEW250 18/06 A2981 RMK CI1 CI TR SLP097 DENSITY ALT 600FT
5:00 da tarde
V
64 °F 30 mi - 260° 260° 15 - 21 kt METAR CYUL 242100Z 26015G21KT 30SM FEW250 18/06 A2982 RMK CI1 CI TR SLP100 DENSITY ALT 700FT
4:00 da tarde
V
66 °F 30 mi - 260° 260° 16 - 22 kt METAR CYUL 242000Z 26016G22KT 30SM FEW050 FEW250 19/06 A2983 RMK CF1CI1 CI TR SLP104 DENSITY ALT 700FT
3:00 da tarde
V
66 °F 30 mi - 260° 260° 15 - 22 kt METAR CYUL 241900Z 26015G22KT 30SM FEW050 SCT250 19/07 A2986 RMK CF2CI1 SLP113 DENSITY ALT 700FT
2:00 da tarde
V
64 °F 30 mi - 260° 260° 15 - 21 kt METAR CYUL 241800Z 26015G21KT 30SM FEW060 FEW250 18/07 A2988 RMK CF2CI1 CI TR SLP122 DENSITY ALT 600FT
1:00 da tarde
V
63 °F 30 mi - 270° 270° 16 kt METAR CYUL 241700Z 27016KT 30SM FEW060 FEW250 17/06 A2990 RMK CF1CI1 CI TR SLP127 DENSITY ALT 500FT
12:00 da tarde
V
59 °F 30 mi - 270° 270° 10 - 15 kt METAR CYUL 241600Z 27010G15KT 30SM FEW100 FEW250 15/08 A2992 RMK AC1CI1 AC TR CI TR SLP135 DENSITY ALT 200FT
11:00 da manhã
V
57 °F 30 mi - 270° 270° 8 kt METAR CYUL 241500Z 27008KT 230V300 30SM FEW230 14/08 A2994 RMK CI1 CI TR SLP142
10:00 da manhã
V
55 °F 30 mi - 250° 250° 11 kt METAR CYUL 241400Z 25011KT 30SM SCT230 13/06 A2995 RMK CI1 CI TR SLP145
9:00 da manhã
V
52 °F 30 mi - 270° 270° 12 kt METAR CYUL 241300Z 27012KT 30SM FEW240 11/05 A2996 RMK CI1 CI TR SLP147
8:00 da manhã
V
48 °F 30 mi - 280° 280° 13 kt METAR CYUL 241200Z 28013KT 30SM FEW240 09/05 A2996 RMK CI1 CI TR SLP148
7:00 da manhã
V
45 °F 30 mi - 280° 280° 9 kt METAR CYUL 241100Z 28009KT 30SM FEW240 07/04 A2996 RMK CI1 CI TR SLP148
6:00 da manhã
V
45 °F 15 mi - 270° 270° 11 kt METAR CYUL 241000Z 27011KT 15SM FEW020 FEW120 07/04 A2996 RMK CF1AC1 CF TR AC TR SLP148
5:00 da manhã
V
45 °F 15 mi - 260° 260° 8 kt METAR CYUL 240900Z 26008KT 15SM SKC 07/04 A2994 RMK SLP143
4:00 da manhã
V
45 °F 15 mi - 270° 270° 7 kt METAR CYUL 240800Z 27007KT 15SM SKC 07/04 A2996 RMK SLP149
3:00 da manhã
V
45 °F 15 mi - 270° 270° 5 kt METAR CYUL 240700Z 27005KT 15SM SKC 07/03 A2997 RMK SLP152
2:00 da manhã
V
45 °F 15 mi - 270° 270° 6 kt METAR CYUL 240600Z 27006KT 15SM SKC 07/03 A2998 RMK SLP155
1:00 da manhã
V
45 °F 15 mi - 280° 280° 6 kt METAR CYUL 240500Z 28006KT 15SM SKC 07/03 A2998 RMK SLP155
12:00 da manhã
V
45 °F 15 mi - 280° 280° 5 kt METAR CYUL 240400Z 28005KT 15SM SKC 07/02 A3000 RMK SLP160

23 de setembro de 2022

Hora Código Clima Temp. Visibilidade Tecto Vento METAR/SPECI
11:00 da tarde
V
46 °F 15 mi - 280° 280° 6 kt METAR CYUL 240300Z 28006KT 270V360 15SM SKC 08/02 A3000 RMK SLP160
10:00 da tarde
V
48 °F 15 mi - 280° 280° 6 kt METAR CYUL 240200Z 28006KT 15SM SKC 09/03 A2999 RMK SLP159
9:00 da tarde
V
48 °F 15 mi - 290° 290° 8 kt METAR CYUL 240100Z 29008KT 15SM SKC 09/02 A2999 RMK SLP157
8:00 da tarde
V
50 °F 15 mi - 300° 300° 10 - 15 kt METAR CYUL 240000Z 30010G15KT 15SM FEW060 10/02 A2999 RMK SC1 SC TR SLP157
7:00 da tarde
V
52 °F 15 mi - 300° 300° 12 - 18 kt METAR CYUL 232300Z 30012G18KT 15SM FEW060 FEW250 11/02 A2998 RMK SC1CI1 SC TR CI TR SLP155
6:00 da tarde
V
55 °F 30 mi - 300° 300° 16 kt METAR CYUL 232200Z 30016KT 30SM FEW060 FEW250 13/01 A2997 RMK SC1CI1 SC TR CI TR SLP150
5:00 da tarde
V
55 °F 30 mi - 300° 300° 13 - 21 kt METAR CYUL 232100Z 30013G21KT 30SM FEW055 FEW250 13/01 A2995 RMK SC1CI1 SC TR CI TR SLP144
4:00 da tarde
V
55 °F 30 mi - 300° 300° 14 - 20 kt METAR CYUL 232000Z 30014G20KT 30SM FEW050 FEW250 13/01 A2994 RMK SC1CI1 SC TR CI TR SLP143
3:00 da tarde
V
55 °F 30 mi - 300° 300° 14 kt METAR CYUL 231900Z 30014KT 260V320 30SM FEW050 FEW250 13/01 A2994 RMK SC1CI1 SC TR CI TR SLP141
2:00 da tarde
V
54 °F 30 mi - 280° 280° 11 - 22 kt METAR CYUL 231800Z 28011G22KT 30SM FEW050 FEW250 12/01 A2995 RMK SC1CI1 CI TR SLP146
1:00 da tarde
V
54 °F 30 mi - 270° 270° 13 - 18 kt METAR CYUL 231700Z 27013G18KT 260V330 30SM FEW045 FEW250 12/02 A2996 RMK CF1CI1 CI TR SLP149
12:00 da tarde
V
48 °F 30 mi - 290° 290° 10 - 19 kt METAR CYUL 231600Z 29010G19KT 260V320 30SM FEW040 FEW250 09/00 A2997 RMK CF1CI1 CI TR SLP151
11:00 da manhã
V
48 °F 30 mi - 280° 280° 8 - 17 kt METAR CYUL 231500Z 28008G17KT 30SM FEW035 FEW080 09/00 A2997 RMK CF1AC1 AC TR SLP151
10:00 da manhã
V
46 °F 15 mi - 290° 290° 9 kt METAR CYUL 231400Z 29009KT 15SM SCT030 SCT070 08/01 A2997 RMK CF3AC1 SLP153
9:00 da manhã
V
45 °F 15 mi - 300° 300° 12 - 18 kt METAR CYUL 231300Z 30012G18KT 15SM SCT030 07/00 A2997 RMK SC4 CU ASOCTD SLP151
Dados mais antigos

Nós e terceiros acompanhamos seu comportamento na internet em nosso site com cookies. Se você continuar, nós assumimos que você concorda com nossa política de cookies. Saiba mais